Flight Track Log - Related Links

Times and Time Zones

All times are in EDT time to prevent confusion due to time zone crossing. See the UAL788 flight status page for this flight to view local times or setup timezone preferences in your user account.


Time Position Orientation Groundspeed Altitude Reporting Facility
EDT Latitude Longitude Course Direction KTS MPH feet Rate Location/Type
Wed 03:10:39 PM 37.6333 -122.3500 38° Northeast 167 192 1,400  Level Northern Cal TRACON
Wed 03:11:39 PM 37.6833 -122.3000 38° Northeast 208 239 3,200 1,900 Climbing Northern Cal TRACON
Wed 03:12:39 PM 37.7333 -122.2333 47° Northeast 256 295 5,200 2,300 Climbing Northern Cal TRACON
Wed 03:13:00 PM 37.6251 -122.4022 119° Southeast  Level FlightAware Approximate
Wed 03:13:39 PM 37.7833 -122.1833 38° Northeast 281 323 7,800  Level Northern Cal TRACON
Wed 03:14:00 PM 37.6989 -122.2845 38° Northeast  Level FlightAware Approximate
Wed 03:14:39 PM 37.8500 -122.1167 38° Northeast 292 336 10,300  Level Northern Cal TRACON
Wed 03:15:00 PM 37.8049 -122.1785 38° Northeast  Level FlightAware Approximate
Wed 03:15:15 PM 37.8842 -122.0833 38° Northeast 292 336 10,700  Level Oakland Center
Wed 03:16:17 PM 37.9650 -122.0064 37° Northeast 350 403 12,300 1,935 Climbing Oakland Center
Wed 03:17:19 PM 38.0661 -121.9089 37° Northeast 379 436 14,700 2,341 Climbing Oakland Center
Wed 03:18:20 PM 38.1556 -121.8264 36° Northeast 392 451 17,100 2,439 Climbing Oakland Center
Wed 03:19:22 PM 38.2439 -121.7422 37° Northeast 398 458 19,700 2,371 Climbing Oakland Center
Wed 03:20:24 PM 38.3358 -121.6525 37° Northeast 411 473 22,000 2,098 Climbing Oakland Center
Wed 03:21:25 PM 38.4303 -121.5611 37° Northeast 424 488 24,000 1,659 Climbing Oakland Center
Wed 03:22:27 PM 38.5092 -121.4419 50° Northeast 440 506 25,400 1,210 Climbing Oakland Center
Wed 03:23:29 PM 38.5856 -121.3083 54° Northeast 464 534 26,500 1,403 Climbing Oakland Center
Wed 03:24:31 PM 38.6822 -121.1419 53° Northeast 486 559 28,300 1,366 Climbing Oakland Center
Wed 03:25:32 PM 38.7617 -121.0003 54° Northeast 492 566 29,300 1,082 Climbing Oakland Center
Wed 03:26:33 PM 38.8444 -120.8575 53° Northeast 500 575 30,500 1,512 Climbing Oakland Center
Wed 03:27:35 PM 38.9269 -120.7167 53° Northeast 496 571 32,400 1,548 Climbing Oakland Center
Wed 03:28:37 PM 39.0072 -120.5781 53° Northeast 483 556 33,700 1,122 Climbing Oakland Center
Wed 03:29:38 PM 39.0839 -120.4442 54° Northeast 474 545 34,700 585 Climbing Oakland Center
Wed 03:30:40 PM 39.1683 -120.3067 52° Northeast 482 555 34,900 146 Climbing Oakland Center
Wed 03:31:41 PM 39.2589 -120.1386 55° Northeast 477 549 35,000 49 Climbing Oakland Center
Wed 03:32:43 PM 39.3331 -120.0158 52° Northeast 479 551 35,000  Level Oakland Center
Wed 03:33:45 PM 39.4111 -119.8767 54° Northeast 477 549 35,000  Level Oakland Center
Wed 03:34:46 PM 39.4889 -119.7369 54° Northeast 476 548 35,000  Level Oakland Center
Wed 03:35:48 PM 39.5664 -119.5978 54° Northeast 474 545 35,000  Level Oakland Center
Wed 03:36:49 PM 39.6525 -119.4231 57° Northeast 476 548 35,000  Level Oakland Center
Wed 03:37:51 PM 39.7128 -119.2694 63° Northeast 478 550 35,000  Level Oakland Center
Wed 03:38:52 PM 39.7706 -119.1142 64° Northeast 474 545 35,000  Level Oakland Center
Wed 03:39:54 PM 39.8292 -118.9572 64° Northeast 477 549 35,000  Level Oakland Center
Wed 03:40:56 PM 39.8875 -118.7997 64° Northeast 477 549 35,000  Level Oakland Center
Wed 03:41:57 PM 39.9458 -118.6431 64° Northeast 477 549 35,000  Level Oakland Center
Wed 03:42:59 PM 40.0039 -118.4881 64° Northeast 474 545 35,000  Level Oakland Center
Wed 03:44:00 PM 40.0606 -118.3322 65° Northeast 474 545 35,000  Level Oakland Center
Wed 03:45:02 PM 40.1181 -118.1781 64° Northeast 473 544 35,000  Level Oakland Center
Wed 03:46:04 PM 40.1742 -118.0233 65° Northeast 470 541 35,000  Level Oakland Center
Wed 03:47:05 PM 40.2303 -117.8689 65° Northeast 470 541 35,000  Level Oakland Center
Wed 03:48:07 PM 40.2900 -117.7056 64° Northeast 468 539 35,000  Level Oakland Center
Wed 03:49:09 PM 40.3522 -117.5317 65° Northeast 470 541 35,000  Level Oakland Center
Wed 03:50:10 PM 40.4047 -117.3828 65° Northeast 471 542 35,000  Level Oakland Center
Wed 03:51:12 PM 40.4681 -117.2094 64° Northeast 470 541 35,000  Level Oakland Center
Wed 03:52:14 PM 40.5231 -117.0597 64° Northeast 471 542 35,000  Level Oakland Center
Wed 03:53:15 PM 40.5758 -116.9039 66° East 479 551 35,000  Level Oakland Center
Wed 03:54:17 PM 40.6328 -116.7239 67° East 482 555 35,000  Level Oakland Center
Wed 03:55:18 PM 40.6739 -116.5683 71° East 473 544 35,000  Level Oakland Center
Wed 03:56:47 PM 40.7283 -116.3331 73° East 469 540 35,000  Level Salt Lake Center
Wed 03:57:49 PM 40.7775 -116.1508 70° East 470 541 35,000  Level Salt Lake Center
Wed 03:59:00 PM 40.8276 -115.9556 71° East  Level FlightAware Approximate
Wed 03:59:53 PM 40.8606 -115.8411 71° East 469 540 35,000  Level Salt Lake Center
Wed 04:00:55 PM 40.9067 -115.6594 71° East 466 536 35,000  Level Salt Lake Center
Wed 04:01:57 PM 40.9478 -115.5044 71° East 466 536 35,000  Level Salt Lake Center
Wed 04:02:59 PM 40.9944 -115.3228 71° East 467 537 35,000  Level Salt Lake Center
Wed 04:04:01 PM 41.0336 -115.1658 72° East 468 539 35,000  Level Salt Lake Center
Wed 04:05:03 PM 41.0808 -114.9839 71° East 468 539 35,000  Level Salt Lake Center
Wed 04:06:05 PM 41.1194 -114.8283 72° East 465 535 35,000  Level Salt Lake Center
Wed 04:07:07 PM 41.1614 -114.6617 71° East 467 537 35,000  Level Salt Lake Center
Wed 04:08:09 PM 41.2017 -114.4986 72° East 466 536 35,000  Level Salt Lake Center
Wed 04:09:11 PM 41.2522 -114.3019 71° East 469 540 35,000  Level Salt Lake Center
Wed 04:10:13 PM 41.2922 -114.1367 72° East 470 541 35,000  Level Salt Lake Center
Wed 04:11:15 PM 41.3314 -113.9708 72° East 470 541 35,000  Level Salt Lake Center
Wed 04:12:17 PM 41.3706 -113.8050 72° East 471 542 35,000  Level Salt Lake Center
Wed 04:13:20 PM 41.4156 -113.6414 70° East 471 542 35,000  Level Salt Lake Center
Wed 04:14:22 PM 41.4608 -113.4772 70° East 471 542 35,000  Level Salt Lake Center
Wed 04:15:24 PM 41.5125 -113.2781 71° East 474 545 35,000  Level Salt Lake Center
Wed 04:16:26 PM 41.5550 -113.1131 71° East 471 542 35,000  Level Salt Lake Center
Wed 04:17:28 PM 41.5967 -112.9472 71° East 471 542 35,000  Level Salt Lake Center
Wed 04:18:30 PM 41.6400 -112.7808 71° East 472 543 35,000  Level Salt Lake Center
Wed 04:19:32 PM 41.6828 -112.6144 71° East 473 544 35,000  Level Salt Lake Center
Wed 04:20:34 PM 41.7261 -112.4469 71° East 474 545 35,000  Level Salt Lake Center
Wed 04:21:36 PM 41.7692 -112.2794 71° East 476 548 35,000  Level Salt Lake Center
Wed 04:22:38 PM 41.8175 -112.0775 72° East 474 545 35,000  Level Salt Lake Center
Wed 04:23:40 PM 41.8592 -111.9078 72° East 477 549 35,000  Level Salt Lake Center
Wed 04:24:41 PM 41.9008 -111.7397 72° East 475 547 35,000  Level Salt Lake Center
Wed 04:25:43 PM 41.9433 -111.5706 71° East 478 550 35,000  Level Salt Lake Center
Wed 04:26:45 PM 41.9847 -111.4006 72° East 478 550 35,000  Level Salt Lake Center
Wed 04:27:47 PM 42.0258 -111.2294 72° East 480 552 35,000  Level Salt Lake Center
Wed 04:28:49 PM 42.0672 -111.0583 72° East 481 554 35,000  Level Salt Lake Center
Wed 04:29:51 PM 42.1133 -110.8686 72° East 481 554 35,000  Level Salt Lake Center
Wed 04:30:53 PM 42.1586 -110.6761 72° East 481 554 35,000  Level Salt Lake Center
Wed 04:31:55 PM 42.1967 -110.5117 73° East 481 554 35,000  Level Salt Lake Center
Wed 04:32:57 PM 42.2364 -110.3464 72° East 483 556 35,000  Level Salt Lake Center
Wed 04:33:59 PM 42.2758 -110.1508 75° East 483 556 35,000  Level Salt Lake Center
Wed 04:35:01 PM 42.3047 -109.9822 77° East 481 554 35,000  Level Salt Lake Center
Wed 04:36:03 PM 42.3403 -109.7847 76° East 483 556 35,000  Level Salt Lake Center
Wed 04:37:05 PM 42.3697 -109.6153 77° East 483 556 35,000  Level Salt Lake Center
Wed 04:38:07 PM 42.4133 -109.4194 73° East 486 559 35,000 244 Level Salt Lake Center
Wed 04:39:08 PM 42.4531 -109.2536 72° East 484 557 35,500 829 Climbing Salt Lake Center
Wed 04:40:10 PM 42.4981 -109.0581 73° East 486 559 36,700 726 Climbing Salt Lake Center
Wed 04:41:12 PM 42.5358 -108.8931 73° East 482 555 37,000 145 Climbing Salt Lake Center
Wed 04:42:14 PM 42.5828 -108.7325 68° East 479 551 37,000  Level Salt Lake Center
Wed 04:43:16 PM 42.6411 -108.5425 67° East 486 559 37,000  Level Salt Lake Center
Wed 04:44:18 PM 42.6928 -108.3842 66° East 483 556 37,000  Level Salt Lake Center
Wed 04:45:20 PM 42.7553 -108.1983 65° Northeast 483 556 37,000  Level Salt Lake Center
Wed 04:46:22 PM 42.8117 -108.0378 64° Northeast 488 562 37,000  Level Salt Lake Center
Wed 04:47:24 PM 42.8797 -107.8547 63° Northeast 487 560 37,000  Level Salt Lake Center
Wed 04:48:26 PM 42.9197 -107.6894 72° East 485 558 37,000  Level Salt Lake Center
Wed 04:49:28 PM 42.9425 -107.4947 81° East 486 559 37,000  Level Salt Lake Center
Wed 04:50:30 PM 42.9633 -107.3125 81° East 488 562 37,000  Level Salt Lake Center
Wed 04:51:09 PM 42.9800 -107.1831 80° East 489 563 37,000  Level Denver Center
Wed 04:52:11 PM 42.9986 -107.0064 82° East 491 565 37,000  Level Denver Center
Wed 04:53:13 PM 43.0217 -106.7981 81° East 498 573 37,000  Level Denver Center
Wed 04:54:16 PM 43.0417 -106.6186 81° East 498 573 37,000  Level Denver Center
Wed 04:55:18 PM 43.0631 -106.4083 82° East 500 575 37,000  Level Denver Center
Wed 04:56:20 PM 43.0808 -106.2269 82° East 503 579 37,000  Level Denver Center
Wed 04:57:22 PM 43.1033 -106.0167 82° East 502 578 37,000  Level Denver Center
Wed 04:58:24 PM 43.1247 -105.8367 81° East 501 577 37,000  Level Denver Center
Wed 04:59:26 PM 43.1525 -105.6258 80° East 502 578 37,000  Level Denver Center
Wed 05:00:28 PM 43.1764 -105.4442 80° East 505 581 37,000  Level Denver Center
Wed 05:01:30 PM 43.1992 -105.2642 80° East 502 578 37,000  Level Denver Center
Wed 05:02:32 PM 43.2256 -105.0528 80° East 502 578 37,000  Level Denver Center
Wed 05:03:34 PM 43.2472 -104.8717 81° East 502 578 37,000  Level Denver Center
Wed 05:04:36 PM 43.2694 -104.6897 80° East 503 579 37,000  Level Denver Center
Wed 05:05:38 PM 43.2950 -104.4781 81° East 502 578 37,000  Level Denver Center
Wed 05:06:40 PM 43.3194 -104.2672 81° East 501 577 37,000  Level Denver Center
Wed 05:07:42 PM 43.3411 -104.0853 81° East 502 578 37,000  Level Denver Center
Wed 05:08:44 PM 43.3606 -103.8753 83° East 497 572 37,000  Level Denver Center
Wed 05:09:46 PM 43.3600 -103.6911 90° East 501 577 37,000  Level Denver Center
Wed 05:10:48 PM 43.3606 -103.5050 90° East 505 581 37,000  Level Denver Center
Wed 05:11:50 PM 43.3594 -103.2894 90° East 505 581 37,000  Level Denver Center
Wed 05:12:52 PM 43.3594 -103.1036 90° East 506 582 37,000  Level Denver Center
Wed 05:13:55 PM 43.3592 -102.8861 90° East 509 586 37,000  Level Denver Center
Wed 05:14:57 PM 43.3586 -102.6983 90° East 513 590 37,000  Level Denver Center
Wed 05:15:59 PM 43.3583 -102.4772 90° East 518 596 37,000  Level Denver Center
Wed 05:17:01 PM 43.3558 -102.2883 91° East 518 596 37,000  Level Denver Center
Wed 05:18:03 PM 43.3506 -102.0953 92° East 525 604 37,000  Level Denver Center
Wed 05:19:05 PM 43.3397 -101.8581 94° East 523 602 37,000  Level Denver Center
Wed 05:20:19 PM 43.3344 -101.6578 92° East 526 605 37,000  Level Denver Center
Wed 05:21:21 PM 43.3461 -101.4208 86° East 521 600 37,000  Level Denver Center
Wed 05:22:23 PM 43.3656 -101.2264 82° East 517 595 37,000  Level Denver Center
Wed 05:23:12 PM 43.3806 -101.0708 82° East 519 597 37,000  Level Minneapolis Center
Wed 05:24:14 PM 43.3994 -100.8778 82° East 515 593 37,000  Level Minneapolis Center
Wed 05:25:16 PM 43.4214 -100.6419 83° East 518 596 37,000  Level Minneapolis Center
Wed 05:26:19 PM 43.4403 -100.4481 82° East 517 595 37,000  Level Minneapolis Center
Wed 05:27:34 PM 43.4611 -100.2133 83° East 514 592 37,000  Level Denver Center
Wed 05:28:23 PM 43.4758 -100.0594 82° East 514 592 37,000  Level Minneapolis Center
Wed 05:29:25 PM 43.4925 -99.8647 83° East 514 592 37,000  Level Minneapolis Center
Wed 05:30:27 PM 43.5131 -99.6319 83° East 513 590 37,000  Level Minneapolis Center
Wed 05:31:29 PM 43.5294 -99.4364 83° East 515 593 37,000  Level Minneapolis Center
Wed 05:32:31 PM 43.5456 -99.2417 83° East 515 593 37,000  Level Minneapolis Center
Wed 05:33:33 PM 43.5603 -99.0469 84° East 514 592 37,000  Level Minneapolis Center
Wed 05:34:35 PM 43.5756 -98.8517 84° East 514 592 37,000  Level Minneapolis Center
Wed 05:35:37 PM 43.5936 -98.6336 83° East 513 590 37,000  Level Minneapolis Center
Wed 05:36:39 PM 43.6075 -98.4381 84° East 515 593 37,000  Level Minneapolis Center
Wed 05:37:42 PM 43.6219 -98.2431 84° East 513 590 37,000  Level Minneapolis Center
Wed 05:38:44 PM 43.6369 -98.0503 84° East 509 586 37,000  Level Minneapolis Center
Wed 05:39:46 PM 43.6525 -97.8189 85° East 507 583 37,000  Level Minneapolis Center
Wed 05:40:48 PM 43.6667 -97.6264 84° East 506 582 37,000  Level Minneapolis Center
Wed 05:41:50 PM 43.6781 -97.4347 85° East 504 580 37,000  Level Minneapolis Center
Wed 05:42:52 PM 43.6914 -97.2422 84° East 506 582 37,000  Level Minneapolis Center
Wed 05:43:54 PM 43.7019 -97.0514 86° East 503 579 37,000  Level Minneapolis Center
Wed 05:44:56 PM 43.7144 -96.8597 85° East 504 580 37,000  Level Minneapolis Center
Wed 05:45:58 PM 43.7281 -96.6303 85° East 503 579 37,000  Level Minneapolis Center
Wed 05:47:00 PM 43.7386 -96.4422 85° East 499 574 37,000  Level Minneapolis Center
Wed 05:48:03 PM 43.7497 -96.2531 85° East 500 575 37,000  Level Minneapolis Center
Wed 05:49:05 PM 43.7594 -96.0658 86° East 497 572 37,000  Level Minneapolis Center
Wed 05:50:07 PM 43.7719 -95.8406 86° East 495 570 37,000  Level Minneapolis Center
Wed 05:51:09 PM 43.7808 -95.6544 86° East 491 565 37,000  Level Minneapolis Center
Wed 05:52:11 PM 43.7900 -95.4697 86° East 488 562 37,000  Level Minneapolis Center
Wed 05:53:13 PM 43.7978 -95.2844 87° East 486 559 37,000  Level Minneapolis Center
Wed 05:54:15 PM 43.8050 -95.0986 87° East 486 559 37,000  Level Minneapolis Center
Wed 05:55:17 PM 43.8156 -94.8742 86° East 489 563 37,000  Level Minneapolis Center
Wed 05:56:19 PM 43.8233 -94.6864 87° East 491 565 37,000  Level Minneapolis Center
Wed 05:57:21 PM 43.8311 -94.5000 87° East 488 562 37,000  Level Minneapolis Center
Wed 05:58:23 PM 43.8378 -94.3122 87° East 490 564 37,000  Level Minneapolis Center
Wed 06:00:31 PM 43.8511 -93.9269 87° East 491 565 37,000  Level Minneapolis Center
Wed 06:01:33 PM 43.8592 -93.7031 87° East 489 563 37,000  Level Minneapolis Center
Wed 06:02:35 PM 43.8647 -93.5181 88° East 486 559 37,000  Level Minneapolis Center
Wed 06:03:37 PM 43.8703 -93.3322 88° East 486 559 37,000  Level Minneapolis Center
Wed 06:04:39 PM 43.8753 -93.1475 88° East 485 558 37,000  Level Minneapolis Center
Wed 06:05:41 PM 43.8794 -92.9633 88° East 482 555 37,000  Level Minneapolis Center
Wed 06:06:43 PM 43.8844 -92.7425 88° East 481 554 37,000  Level Minneapolis Center
Wed 06:07:45 PM 43.8883 -92.5594 88° East 479 551 37,000  Level Minneapolis Center
Wed 06:08:47 PM 43.8928 -92.3767 88° East 478 550 37,000  Level Minneapolis Center
Wed 06:09:49 PM 43.8967 -92.1919 88° East 480 552 37,000  Level Minneapolis Center
Wed 06:10:52 PM 43.9000 -92.0089 88° East 479 551 37,000  Level Minneapolis Center
Wed 06:11:54 PM 43.9028 -91.7869 89° East 481 554 37,000  Level Minneapolis Center
Wed 06:13:21 PM 43.9094 -91.5194 88° East 484 557 37,000  Level Minneapolis Center
Wed 06:14:23 PM 43.9108 -91.3358 89° East 482 555 37,000  Level Minneapolis Center
Wed 06:15:25 PM 43.9131 -91.1528 89° East 479 551 37,000  Level Minneapolis Center
Wed 06:16:27 PM 43.9150 -90.9703 89° East 477 549 37,000  Level Minneapolis Center
Wed 06:17:29 PM 43.9161 -90.7864 89° East 478 550 37,000  Level Minneapolis Center
Wed 06:18:23 PM 43.9161 -90.6061 90° East 474 545 37,000  Level Chicago Center
Wed 06:19:25 PM 43.9181 -90.4253 89° East 473 544 37,000  Level Chicago Center
Wed 06:20:27 PM 43.9181 -90.2197 90° East 472 543 37,000  Level Chicago Center
Wed 06:21:29 PM 43.9167 -90.0347 91° East 477 549 37,000  Level Chicago Center
Wed 06:22:31 PM 43.9172 -89.8508 90° East 476 548 37,000  Level Chicago Center
Wed 06:23:33 PM 43.9147 -89.6689 91° East 474 545 37,000  Level Chicago Center
Wed 06:24:35 PM 43.9153 -89.4822 90° East 479 551 37,000  Level Chicago Center
Wed 06:25:38 PM 43.9142 -89.2672 90° East 477 549 37,000  Level Chicago Center
Wed 06:26:40 PM 43.9128 -89.0817 91° East 479 551 37,000  Level Chicago Center
Wed 06:27:42 PM 43.9103 -88.8975 91° East 476 548 37,000  Level Chicago Center
Wed 06:28:44 PM 43.9092 -88.7103 90° East 484 557 37,000  Level Chicago Center
Wed 06:29:46 PM 43.9075 -88.5247 91° East 479 551 37,000  Level Chicago Center
Wed 06:30:48 PM 43.9056 -88.3394 91° East 476 548 37,000  Level Chicago Center
Wed 06:31:50 PM 43.9028 -88.1536 91° East 479 551 37,000  Level Chicago Center
Wed 06:32:52 PM 43.8994 -87.9372 91° East 478 550 37,000  Level Chicago Center
Wed 06:33:54 PM 43.8958 -87.7522 91° East 479 551 37,000  Level Chicago Center
Wed 06:34:56 PM 43.8922 -87.5664 91° East 480 552 37,000  Level Chicago Center
Wed 06:35:58 PM 43.8881 -87.3797 92° East 483 556 37,000  Level Chicago Center
Wed 06:37:00 PM 43.8806 -87.1931 93° East 488 562 37,000  Level Chicago Center
Wed 06:38:02 PM 43.8775 -87.0072 91° East 484 557 37,000  Level Chicago Center
Wed 06:39:15 PM 43.8694 -86.7844 93° East 483 556 37,000  Level Minneapolis Center
Wed 06:40:17 PM 43.8647 -86.5989 92° East 482 555 37,000  Level Minneapolis Center
Wed 06:41:20 PM 43.8581 -86.3764 92° East 481 554 37,000  Level Minneapolis Center
Wed 06:42:11 PM 43.8531 -86.2278 93° East 482 555 37,000  Level Chicago Center
Wed 06:43:24 PM 43.8447 -86.0033 93° East 483 556 37,000  Level Minneapolis Center
Wed 06:44:26 PM 43.8386 -85.8175 93° East 483 556 37,000  Level Minneapolis Center
Wed 06:45:28 PM 43.8311 -85.6297 93° East 485 558 37,000  Level Minneapolis Center
Wed 06:46:30 PM 43.8242 -85.4439 93° East 484 557 37,000  Level Minneapolis Center
Wed 06:47:32 PM 43.8161 -85.2197 93° East 484 557 37,000  Level Minneapolis Center
Wed 06:48:34 PM 43.8081 -85.0342 93° East 484 557 37,000  Level Minneapolis Center
Wed 06:49:36 PM 43.7992 -84.8481 94° East 484 557 37,000  Level Minneapolis Center
Wed 06:50:38 PM 43.7903 -84.6617 94° East 485 558 37,000  Level Minneapolis Center
Wed 06:51:40 PM 43.7828 -84.4758 93° East 484 557 37,000  Level Minneapolis Center
Wed 06:52:43 PM 43.7728 -84.2886 94° East 487 560 37,000  Level Minneapolis Center
Wed 06:53:45 PM 43.7631 -84.1028 94° East 486 559 37,000  Level Minneapolis Center
Wed 06:54:47 PM 43.7528 -83.8803 94° East 486 559 37,000  Level Minneapolis Center
Wed 06:55:49 PM 43.7419 -83.6928 95° East 488 562 37,000  Level Minneapolis Center
Wed 06:56:51 PM 43.7325 -83.5047 94° East 490 564 37,000  Level Minneapolis Center
Wed 06:57:53 PM 43.7197 -83.3192 95° East 488 562 37,000  Level Minneapolis Center
Wed 06:58:55 PM 43.7106 -83.1308 94° East 491 565 37,000  Level Minneapolis Center
Wed 06:59:57 PM 43.6983 -82.9442 95° East 490 564 37,000  Level Minneapolis Center
Wed 07:00:42 PM 43.6667 -82.7667 104° East 490 564 37,000  Level Toronto Center
Wed 07:01:42 PM 43.6667 -82.5833 90° East 490 564 37,000  Level Toronto Center
Wed 07:03:32 PM 43.6503 -82.2614 94° East 483 556 37,000  Level Cleveland Center
Wed 07:04:05 PM 43.6472 -82.1614 92° East 488 562 37,000  Level Minneapolis Center
Wed 07:04:42 PM 43.6167 -82.0000 105° East 490 564 37,000  Level Toronto Center
Wed 07:05:42 PM 43.6167 -81.8167 90° East 490 564 37,000  Level Toronto Center
Wed 07:06:42 PM 43.6000 -81.6333 97° East 490 564 37,000  Level Toronto Center
Wed 07:07:42 PM 43.5833 -81.4500 97° East 490 564 37,000  Level Toronto Center
Wed 07:08:42 PM 43.5667 -81.2667 97° East 490 564 37,000  Level Toronto Center
Wed 07:09:42 PM 43.5500 -81.0833 97° East 490 564 37,000  Level Toronto Center
Wed 07:10:42 PM 43.5333 -80.9000 97° East 490 564 37,000  Level Toronto Center
Wed 07:11:42 PM 43.5333 -80.7167 90° East 490 564 37,000  Level Toronto Center
Wed 07:12:42 PM 43.5167 -80.5333 97° East 480 552 37,000  Level Toronto Center
Wed 07:13:42 PM 43.5000 -80.3500 97° East 490 564 37,000  Level Toronto Center
Wed 07:14:42 PM 43.4833 -80.1667 97° East 480 552 37,000  Level Toronto Center
Wed 07:15:42 PM 43.4667 -79.9833 97° East 480 552 37,000  Level Toronto Center
Wed 07:16:42 PM 43.4500 -79.8000 97° East 480 552 37,000  Level Toronto Center
Wed 07:17:42 PM 43.4333 -79.6167 97° East 480 552 37,000  Level Toronto Center
Wed 07:18:42 PM 43.4167 -79.4333 97° East 480 552 37,000  Level Toronto Center
Wed 07:19:42 PM 43.4000 -79.2500 97° East 480 552 37,000  Level Toronto Center
Wed 07:20:42 PM 43.3833 -79.0667 97° East 480 552 37,000  Level Toronto Center
Wed 07:21:42 PM 43.3667 -78.8833 97° East 480 552 37,000  Level Toronto Center
Wed 07:22:32 PM 43.3567 -78.7644 97° East 480 552 37,000  Level Cleveland Center
Wed 07:23:32 PM 43.3392 -78.5853 98° East 480 552 37,000  Level Cleveland Center
Wed 07:24:32 PM 43.3192 -78.4033 99° East 480 552 37,000  Level Cleveland Center
Wed 07:25:32 PM 43.3031 -78.2183 97° East 480 552 37,000  Level Cleveland Center
Wed 07:26:32 PM 43.2825 -78.0394 99° East 480 552 37,000  Level Cleveland Center
Wed 07:27:32 PM 43.2617 -77.8578 99° East 480 552 37,000  Level Cleveland Center
Wed 07:29:45 PM 43.2156 -77.4525 99° East 486 559 37,000  Level Boston Center
Wed 07:30:45 PM 43.1961 -77.2742 98° East 486 559 37,000  Level Boston Center
Wed 07:31:45 PM 43.1767 -77.0933 98° East 486 559 37,000  Level Boston Center
Wed 07:32:45 PM 43.1547 -76.9150 100° East 486 559 37,000  Level Boston Center
Wed 07:33:45 PM 43.1325 -76.7339 99° East 486 559 37,000  Level Boston Center
Wed 07:34:45 PM 43.1106 -76.5303 98° East 486 559 37,000  Level Boston Center
Wed 07:35:45 PM 43.0900 -76.3469 99° East 486 559 37,000 -50 Level Boston Center
Wed 07:36:45 PM 43.0669 -76.1664 100° East 486 559 36,900  Descending Boston Center
Wed 07:37:45 PM 43.0414 -75.9831 101° East 486 559 37,000 50 Climbing Boston Center
Wed 07:38:45 PM 43.0178 -75.7969 100° East 486 559 37,000  Level Boston Center
Wed 07:39:45 PM 42.9939 -75.6139 100° East 486 559 37,000  Level Boston Center
Wed 07:40:45 PM 42.9697 -75.4281 100° East 486 559 37,000  Level Boston Center
Wed 07:41:45 PM 42.9453 -75.2453 100° East 486 559 37,000 -50 Level Boston Center
Wed 07:42:45 PM 42.9206 -75.0600 100° East 491 565 36,900  Descending Boston Center
Wed 07:43:45 PM 42.8953 -74.8747 100° East 491 565 37,000 50 Climbing Boston Center
Wed 07:44:45 PM 42.8756 -74.7294 100° East 491 565 37,000  Level Boston Center
Wed 07:45:45 PM 42.8464 -74.5075 100° East 491 565 37,000  Level Boston Center
Wed 07:46:45 PM 42.8225 -74.3253 100° East 486 559 37,000  Level Boston Center
Wed 07:47:45 PM 42.7919 -74.1433 103° East 486 559 37,000 -50 Level Boston Center
Wed 07:48:45 PM 42.7675 -73.9589 100° East 492 566 36,900  Descending Boston Center
Wed 07:49:45 PM 42.7428 -73.7772 100° East 486 559 37,000 50 Climbing Boston Center
Wed 07:50:45 PM 42.7278 -73.6103 97° East 486 559 37,000  Level Boston Center
Wed 07:51:45 PM 42.7086 -73.4261 98° East 486 559 37,000 -800 Level Boston Center
Wed 07:52:45 PM 42.6894 -73.2394 98° East 486 559 35,400 -2,250 Descending Boston Center
Wed 07:53:45 PM 42.6717 -73.0556 97° East 486 559 32,500 -3,100 Descending Boston Center
Wed 07:54:45 PM 42.6475 -72.8606 99° East 504 580 29,200 -2,750 Descending Boston Center
Wed 07:55:45 PM 42.6253 -72.6772 99° East 504 580 27,000 -2,550 Descending Boston Center
Wed 07:56:45 PM 42.6067 -72.5106 99° East 475 547 24,100 -2,550 Descending Boston Center
Wed 07:57:45 PM 42.5817 -72.3272 100° East 483 556 21,900 -2,227 Descending Boston Center
Wed 07:58:57 PM 42.5583 -72.1525 100° East 462 532 19,200 -2,545 Descending Boston Center
Wed 07:59:57 PM 42.5369 -71.9781 99° East 425 489 16,300 -2,650 Descending Boston Center
Wed 08:00:57 PM 42.5236 -71.8092 96° East 413 475 13,900 -2,350 Descending Boston Center
Wed 08:01:57 PM 42.5103 -71.6769 98° East 407 468 11,600 -1,842 Descending Boston Center
Wed 08:02:51 PM 42.5000 -71.5333 95° East 385 443 10,400 -895 Descending KA90
Wed 08:03:51 PM 42.4833 -71.4000 100° East 324 373 9,900 -950 Descending KA90
Wed 08:04:51 PM 42.4667 -71.2833 101° East 305 351 8,500 -1,267 Descending KA90
Wed 08:06:51 PM 42.4500 -71.0667 96° East 291 335 6,100 -833 Descending KA90
Wed 08:07:51 PM 42.4333 -70.9833 105° East 249 287 6,000 -50 Descending KA90
Wed 08:08:51 PM 42.3667 -70.9500 160° South 233 268 6,000  Level KA90
Wed 08:09:51 PM 42.3167 -70.9167 154° Southeast 229 264 6,000 -581 Level KA90
Wed 08:11:57 PM 42.1928 -70.9717 198° South 233 268 4,200 -1,000 Descending Boston Center
Wed 08:12:51 PM 42.1667 -71.0333 240° Southwest 211 243 3,000 -632 Descending KA90
Wed 08:13:51 PM 42.2167 -71.0667 334° Northwest 210 242 3,000 -500 Level KA90
Wed 08:14:51 PM 42.2667 -71.0500 14° North 186 214 2,000 -950 Descending KA90
Wed 08:15:51 PM 42.3000 -71.0333 20° North 166 191 1,100 -850 Descending KA90
Wed 08:16:51 PM 42.3500 -71.0167 14° North 140 161 300 -800 Descending KA90

Login

Don't have an account? Register now (free) for customized features, flight alerts, and more!